Apple Springs, Texas
Current Conditions -  °F | °C
As of 8:53 AM on Wednesday 22 Oct 2014 (Local Time) from KLFK Reporting Station
Haze Haze  
Wind Chill: 67°   Ceiling: Unl
Heat Index: 67°   Visibility: 5mi
Dew Point: 62°   Wind: 6mph
Humidity: 84%   Direction: 40°NE
Pressure: 30.13"   Gusts: NA
Location:  31.22°N, 94.97°W
Report Text: KLFK 221353Z AUTO 04005KT 5SM HZ CLR 19/17 A3013 RMK AO2 SLP199 T01940167
Loading
Personal Weather Stations






























Interactive Weather Map New forecast layout! Learn more

10-Day Weather Forecast

Advertisements
Track Severe Weather on mobile